createdAt,value
2023-02-15T00:02:11.819Z,15.57
2023-02-15T00:07:10.584Z,15.73
2023-02-15T00:12:10.985Z,17.30
2023-02-15T00:17:09.947Z,15.60
2023-02-15T00:22:09.530Z,16.48
2023-02-15T00:27:10.317Z,14.20
2023-02-15T00:32:09.501Z,14.98
2023-02-15T00:37:08.537Z,14.43
2023-02-15T00:42:07.344Z,12.73
2023-02-15T00:47:06.404Z,13.48
2023-02-15T00:52:05.679Z,13.23
2023-02-15T00:57:04.401Z,12.98
2023-02-15T01:02:03.335Z,12.45
2023-02-15T01:07:03.224Z,13.18
2023-02-15T01:12:05.418Z,13.45
2023-02-15T01:17:04.417Z,12.85
2023-02-15T01:22:07.136Z,12.32
2023-02-15T01:27:07.717Z,13.70
2023-02-15T01:32:06.861Z,13.93
2023-02-15T01:37:05.966Z,12.55
2023-02-15T01:42:04.800Z,13.32
2023-02-15T01:47:03.987Z,13.73
2023-02-15T01:52:03.845Z,12.65
2023-02-15T01:57:10.318Z,13.38
2023-02-15T02:02:12.899Z,12.07
2023-02-15T02:07:15.379Z,13.00
2023-02-15T02:12:15.257Z,12.10
2023-02-15T02:17:36.572Z,12.13
2023-02-15T02:23:04.442Z,11.93
2023-02-15T02:28:21.714Z,14.30
2023-02-15T02:33:49.825Z,12.25
2023-02-15T02:38:48.605Z,13.20
2023-02-15T02:44:03.922Z,10.85
2023-02-15T02:49:03.090Z,10.15
2023-02-15T02:54:06.828Z,12.02
2023-02-15T02:59:15.083Z,10.57
2023-02-15T03:04:26.091Z,12.60
2023-02-15T03:09:42.647Z,10.85
2023-02-15T03:14:49.054Z,11.35
2023-02-15T03:19:53.430Z,11.02
2023-02-15T03:25:04.008Z,10.45
2023-02-15T03:30:04.825Z,11.18
2023-02-15T03:35:04.323Z,9.07
2023-02-15T03:40:36.372Z,10.45
2023-02-15T03:45:39.324Z,10.63
2023-02-15T03:50:57.841Z,9.32
2023-02-15T03:55:56.803Z,9.77
2023-02-15T04:01:19.036Z,9.55
2023-02-15T04:06:17.892Z,9.77
2023-02-15T04:11:17.019Z,9.18
2023-02-15T04:16:15.922Z,9.05
2023-02-15T04:21:33.400Z,9.32
2023-02-15T04:26:32.327Z,8.23
2023-02-15T04:31:31.436Z,9.32
2023-02-15T04:36:30.262Z,8.80
2023-02-15T04:41:29.430Z,9.68
2023-02-15T04:46:29.280Z,9.63
2023-02-15T04:51:28.426Z,8.70
2023-02-15T04:56:27.563Z,9.05
2023-02-15T05:01:26.578Z,8.80
2023-02-15T05:06:25.388Z,8.93
2023-02-15T05:11:24.317Z,8.75
2023-02-15T05:16:23.242Z,9.00
2023-02-15T05:21:22.150Z,8.07
2023-02-15T05:26:41.987Z,8.80
2023-02-15T05:31:41.149Z,10.68
2023-02-15T05:36:40.283Z,8.27
2023-02-15T05:41:39.265Z,6.78
2023-02-15T05:46:38.070Z,7.55
2023-02-15T05:51:37.009Z,8.52
2023-02-15T05:56:36.608Z,8.07
2023-02-15T06:01:35.364Z,8.30
2023-02-15T06:06:35.739Z,7.70
2023-02-15T06:11:34.577Z,7.68
2023-02-15T06:16:33.396Z,7.53
2023-02-15T06:21:32.170Z,7.25
2023-02-15T06:26:31.160Z,7.88
2023-02-15T06:31:30.332Z,7.78
2023-02-15T06:36:29.730Z,7.60
2023-02-15T06:41:28.565Z,7.28
2023-02-15T06:46:27.930Z,6.53
2023-02-15T06:51:27.140Z,6.82
2023-02-15T06:56:26.312Z,7.38
2023-02-15T07:01:25.295Z,7.53
2023-02-15T07:06:24.276Z,7.38
2023-02-15T07:11:41.635Z,7.18
2023-02-15T07:16:40.411Z,6.28
2023-02-15T07:21:39.558Z,8.45
2023-02-15T07:26:38.535Z,7.72
2023-02-15T07:31:37.445Z,7.80
2023-02-15T07:36:36.463Z,7.60
2023-02-15T07:41:35.488Z,8.07
2023-02-15T07:46:36.925Z,7.78
2023-02-15T07:51:35.818Z,7.57
2023-02-15T07:56:37.611Z,7.40
2023-02-15T08:01:38.299Z,7.10
2023-02-15T08:06:38.415Z,6.05
2023-02-15T08:11:38.714Z,6.90
2023-02-15T08:16:46.268Z,6.55
2023-02-15T08:21:49.409Z,6.78
2023-02-15T08:26:49.282Z,6.32
2023-02-15T08:31:48.945Z,6.80
2023-02-15T08:36:48.328Z,6.47
2023-02-15T08:41:49.186Z,6.63
2023-02-15T08:46:50.008Z,5.88
2023-02-15T08:51:49.964Z,6.05
2023-02-15T08:56:49.217Z,6.65
2023-02-15T09:01:50.393Z,6.20
2023-02-15T09:06:51.092Z,6.20
2023-02-15T09:11:57.457Z,6.75
2023-02-15T09:16:57.677Z,6.93
2023-02-15T09:21:56.629Z,5.75
2023-02-15T09:26:55.511Z,7.18
2023-02-15T09:31:54.843Z,7.30
2023-02-15T09:36:54.605Z,7.35
2023-02-15T09:41:56.238Z,6.07
2023-02-15T09:47:16.491Z,7.72
2023-02-15T09:52:36.860Z,8.25
2023-02-15T09:57:53.062Z,7.97
2023-02-15T10:03:21.296Z,7.97
2023-02-15T10:08:41.595Z,9.65
2023-02-15T10:13:51.675Z,9.75
2023-02-15T10:19:24.600Z,9.35
2023-02-15T10:24:47.799Z,10.10
2023-02-15T10:29:54.274Z,9.60
2023-02-15T10:35:13.965Z,9.73
2023-02-15T10:40:50.582Z,9.55
2023-02-15T10:46:04.521Z,8.73
2023-02-15T10:51:06.441Z,10.20
2023-02-15T10:56:24.154Z,9.43
2023-02-15T11:01:26.592Z,9.02
2023-02-15T11:06:27.758Z,8.60
2023-02-15T11:11:32.189Z,8.32
2023-02-15T11:16:41.951Z,8.70
2023-02-15T11:21:46.344Z,7.32
2023-02-15T11:26:51.328Z,8.00
2023-02-15T11:32:02.622Z,8.65
2023-02-15T11:37:16.981Z,8.13
2023-02-15T11:42:23.553Z,8.75
2023-02-15T11:47:22.461Z,8.98
2023-02-15T11:52:21.720Z,7.78
2023-02-15T11:57:43.678Z,8.63
2023-02-15T12:02:48.101Z,8.85
2023-02-15T12:08:12.690Z,8.68
2023-02-15T12:13:14.111Z,8.52
2023-02-15T12:18:40.430Z,8.25
2023-02-15T12:23:49.333Z,8.57
2023-02-15T12:28:53.183Z,8.50
2023-02-15T12:33:55.171Z,8.63
2023-02-15T12:39:14.182Z,8.70
2023-02-15T12:44:24.370Z,8.45
2023-02-15T12:49:23.473Z,10.63
2023-02-15T12:54:29.677Z,8.27
2023-02-15T12:59:28.527Z,8.05
2023-02-15T13:04:30.286Z,9.00
2023-02-15T13:09:35.806Z,8.95
2023-02-15T13:14:35.023Z,9.45
2023-02-15T13:19:51.208Z,9.88
2023-02-15T13:24:55.391Z,9.27
2023-02-15T13:29:59.938Z,23.50
2023-02-15T13:35:06.564Z,9.82
2023-02-15T13:40:26.458Z,10.07
2023-02-15T13:45:39.738Z,10.18
2023-02-15T13:51:10.788Z,9.18
2023-02-15T13:56:35.325Z,10.25
2023-02-15T14:01:58.763Z,10.13
2023-02-15T14:07:12.892Z,10.88
2023-02-15T14:12:36.483Z,9.63
2023-02-15T14:17:56.697Z,11.13
2023-02-15T14:23:18.670Z,11.05
2023-02-15T14:28:40.852Z,11.43
2023-02-15T14:33:57.087Z,12.02
2023-02-15T14:39:28.123Z,12.15
2023-02-15T14:44:33.396Z,11.52
2023-02-15T14:49:36.542Z,12.25
2023-02-15T14:54:35.374Z,12.23
2023-02-15T14:59:50.508Z,11.45
2023-02-15T15:05:10.876Z,11.88
2023-02-15T15:10:18.705Z,13.80
2023-02-15T15:15:30.926Z,12.07
2023-02-15T15:20:51.647Z,12.70
2023-02-15T15:25:51.271Z,12.60
2023-02-15T15:30:50.426Z,13.50
2023-02-15T15:36:24.328Z,11.77
2023-02-15T15:41:32.250Z,14.35
2023-02-15T15:46:59.583Z,14.30
2023-02-15T15:52:03.089Z,12.57
2023-02-15T15:57:04.920Z,13.77
2023-02-15T16:02:08.948Z,13.35
2023-02-15T16:07:18.362Z,13.52
2023-02-15T16:12:21.843Z,12.15
2023-02-15T16:17:26.645Z,13.52
2023-02-15T16:22:27.892Z,13.68
2023-02-15T16:27:37.164Z,13.18
2023-02-15T16:32:37.485Z,12.98
2023-02-15T16:37:37.855Z,13.15
2023-02-15T16:42:36.891Z,12.23
2023-02-15T16:47:42.875Z,13.73
2023-02-15T16:52:44.866Z,14.40
2023-02-15T16:57:44.364Z,14.30
2023-02-15T17:02:56.837Z,12.77
2023-02-15T17:08:13.843Z,13.57
2023-02-15T17:13:17.618Z,13.73
2023-02-15T17:23:34.798Z,12.25
2023-02-15T17:28:33.768Z,13.05
2023-02-15T17:33:35.809Z,14.60
2023-02-15T17:38:34.820Z,15.27
2023-02-15T17:43:33.778Z,15.10
2023-02-15T17:48:37.540Z,14.40
2023-02-15T17:53:36.409Z,16.80
2023-02-15T17:58:35.453Z,14.52
2023-02-15T18:04:07.332Z,13.98
2023-02-15T18:09:25.247Z,13.60
2023-02-15T18:14:24.332Z,14.52
2023-02-15T18:19:26.116Z,13.25
2023-02-15T18:24:26.852Z,13.73
2023-02-15T18:29:25.781Z,14.77
2023-02-15T18:34:32.271Z,13.50
2023-02-15T18:39:44.028Z,13.52
2023-02-15T18:44:44.493Z,13.98
2023-02-15T18:49:43.629Z,13.98
2023-02-15T18:54:42.793Z,13.05
2023-02-15T18:59:41.863Z,13.63
2023-02-15T19:04:40.850Z,14.85
2023-02-15T19:09:41.184Z,14.77
2023-02-15T19:14:40.438Z,15.18
2023-02-15T19:19:39.258Z,14.20
2023-02-15T19:24:41.053Z,14.30
2023-02-15T19:29:40.109Z,14.77
2023-02-15T19:34:39.038Z,15.48
2023-02-15T19:39:40.540Z,15.85
2023-02-15T19:44:43.658Z,14.38
2023-02-15T19:49:42.714Z,13.77
2023-02-15T19:54:41.880Z,14.45
2023-02-15T19:59:41.317Z,14.38
2023-02-15T20:04:40.766Z,14.93
2023-02-15T20:09:41.078Z,15.30
2023-02-15T20:14:42.015Z,15.15
2023-02-15T20:19:41.709Z,14.70
2023-02-15T20:24:40.824Z,14.93
2023-02-15T20:29:39.757Z,13.95
2023-02-15T20:34:38.761Z,14.50
2023-02-15T20:39:37.600Z,13.70
2023-02-15T20:44:36.484Z,14.93
2023-02-15T20:49:38.172Z,15.32
2023-02-15T20:54:37.592Z,15.68
2023-02-15T20:59:36.917Z,11.65
2023-02-15T21:04:35.659Z,13.77
2023-02-15T21:09:34.588Z,14.30
2023-02-15T21:14:34.621Z,13.95
2023-02-15T21:19:33.344Z,14.02
2023-02-15T21:24:32.267Z,13.75
2023-02-15T21:29:31.536Z,13.75
2023-02-15T21:34:30.288Z,15.07
2023-02-15T21:39:32.726Z,12.70
2023-02-15T21:44:50.844Z,12.55
2023-02-15T21:49:49.958Z,15.73
2023-02-15T21:54:49.209Z,13.23
2023-02-15T21:59:48.187Z,14.40
2023-02-15T22:04:46.921Z,12.82
2023-02-15T22:09:45.734Z,12.88
2023-02-15T22:14:49.741Z,12.65
2023-02-15T22:19:50.065Z,12.98
2023-02-15T22:24:48.940Z,12.20
2023-02-15T22:29:48.854Z,11.70
2023-02-15T22:34:48.013Z,11.98
2023-02-15T22:39:46.846Z,12.65
2023-02-15T22:44:46.487Z,13.35
2023-02-15T22:49:45.398Z,13.07
2023-02-15T22:54:44.737Z,11.63
2023-02-15T22:59:43.675Z,12.57
2023-02-15T23:04:43.008Z,11.45
2023-02-15T23:09:42.378Z,12.80
2023-02-15T23:14:41.191Z,11.50
2023-02-15T23:19:40.192Z,12.25
2023-02-15T23:24:39.839Z,11.40
2023-02-15T23:29:38.783Z,11.48
2023-02-15T23:34:37.616Z,11.65
2023-02-15T23:39:55.035Z,11.90
2023-02-15T23:44:53.934Z,11.68
2023-02-15T23:49:52.810Z,12.02
2023-02-15T23:54:51.790Z,12.05
2023-02-15T23:59:50.685Z,11.15
